createdAt,value
2018-07-15T00:00:25.021Z,14.10
2018-07-15T00:02:53.514Z,14.00
2018-07-15T00:05:22.100Z,14.00
2018-07-15T00:07:50.675Z,14.00
2018-07-15T00:10:19.155Z,14.00
2018-07-15T00:15:15.891Z,13.90
2018-07-15T00:17:44.449Z,13.90
2018-07-15T00:20:13.001Z,13.90
2018-07-15T00:22:41.583Z,13.80
2018-07-15T00:25:10.132Z,13.80
2018-07-15T00:27:38.603Z,13.80
2018-07-15T00:30:07.183Z,13.70
2018-07-15T00:32:35.663Z,13.70
2018-07-15T00:35:04.179Z,13.70
2018-07-15T00:37:32.689Z,13.70
2018-07-15T00:40:01.250Z,13.70
2018-07-15T00:42:29.762Z,13.60
2018-07-15T00:44:58.579Z,13.60
2018-07-15T00:49:55.328Z,13.60
2018-07-15T00:52:23.847Z,13.50
2018-07-15T00:54:52.344Z,13.50
2018-07-15T00:57:20.935Z,13.50
2018-07-15T00:59:49.420Z,13.50
2018-07-15T01:02:17.939Z,13.50
2018-07-15T01:04:46.435Z,13.50
2018-07-15T01:07:14.952Z,13.40
2018-07-15T01:09:43.447Z,13.40
2018-07-15T01:12:11.920Z,13.40
2018-07-15T01:17:08.656Z,13.30
2018-07-15T01:19:37.308Z,13.30
2018-07-15T01:22:05.797Z,13.30
2018-07-15T01:24:34.336Z,13.20
2018-07-15T01:29:31.045Z,13.20
2018-07-15T01:31:59.511Z,13.20
2018-07-15T01:34:27.987Z,13.20
2018-07-15T01:36:56.483Z,13.20
2018-07-15T01:39:24.988Z,13.10
2018-07-15T01:41:53.446Z,13.10
2018-07-15T01:44:21.929Z,13.10
2018-07-15T01:46:50.425Z,13.10
2018-07-15T01:49:18.888Z,13.10
2018-07-15T01:51:47.360Z,13.10
2018-07-15T01:54:15.863Z,13.10
2018-07-15T01:59:12.539Z,13.00
2018-07-15T02:01:40.966Z,13.00
2018-07-15T02:04:09.502Z,13.00
2018-07-15T02:09:06.316Z,13.00
2018-07-15T02:11:34.773Z,12.90
2018-07-15T02:14:03.221Z,12.90
2018-07-15T02:16:31.638Z,12.90
2018-07-15T02:19:00.675Z,12.80
2018-07-15T02:21:29.143Z,12.80
2018-07-15T02:23:57.607Z,12.80
2018-07-15T02:26:26.044Z,12.80
2018-07-15T02:28:54.519Z,12.80
2018-07-15T02:31:22.953Z,12.80
2018-07-15T02:33:51.486Z,12.80
2018-07-15T02:36:19.954Z,12.70
2018-07-15T02:38:48.411Z,12.70
2018-07-15T02:41:16.874Z,12.70
2018-07-15T02:43:45.322Z,12.70
2018-07-15T02:46:13.785Z,12.70
2018-07-15T02:48:42.228Z,12.70
2018-07-15T02:51:10.701Z,12.60
2018-07-15T02:53:39.165Z,12.60
2018-07-15T02:56:07.644Z,12.60
2018-07-15T02:58:36.131Z,12.60
2018-07-15T03:01:04.581Z,12.60
2018-07-15T03:03:33.029Z,12.50
2018-07-15T03:06:01.499Z,12.50
2018-07-15T03:08:29.983Z,12.50
2018-07-15T03:10:58.487Z,12.50
2018-07-15T03:13:26.932Z,12.50
2018-07-15T03:15:55.401Z,12.50
2018-07-15T03:18:23.848Z,12.50
2018-07-15T03:20:52.420Z,12.50
2018-07-15T03:23:20.882Z,12.50
2018-07-15T03:25:49.381Z,12.40
2018-07-15T03:28:17.844Z,12.40
2018-07-15T03:30:46.329Z,12.40
2018-07-15T03:33:14.884Z,12.40
2018-07-15T03:35:43.351Z,12.40
2018-07-15T03:38:11.868Z,12.50
2018-07-15T03:40:40.302Z,12.50
2018-07-15T03:43:08.782Z,12.50
2018-07-15T03:45:37.284Z,12.40
2018-07-15T03:48:05.854Z,12.50
2018-07-15T03:50:34.291Z,12.50
2018-07-15T03:55:31.537Z,12.50
2018-07-15T03:58:00.032Z,12.50
2018-07-15T04:00:28.489Z,12.50
2018-07-15T04:02:56.963Z,12.60
2018-07-15T04:05:25.428Z,12.60
2018-07-15T04:07:53.916Z,12.60
2018-07-15T04:10:22.404Z,12.70
2018-07-15T04:12:50.903Z,12.70
2018-07-15T04:15:19.344Z,12.70
2018-07-15T04:20:20.305Z,12.80
2018-07-15T04:25:16.945Z,12.80
2018-07-15T04:27:45.385Z,12.90
2018-07-15T04:30:13.852Z,12.90
2018-07-15T04:32:42.324Z,12.90
2018-07-15T04:37:38.947Z,12.90
2018-07-15T04:40:07.432Z,13.00
2018-07-15T04:42:35.922Z,13.00
2018-07-15T04:45:04.432Z,13.00
2018-07-15T04:47:32.856Z,13.10
2018-07-15T04:50:01.310Z,13.10
2018-07-15T04:52:29.761Z,13.10
2018-07-15T04:54:58.214Z,13.10
2018-07-15T04:57:26.690Z,13.10
2018-07-15T04:59:55.732Z,13.10
2018-07-15T05:02:24.242Z,13.10
2018-07-15T05:04:52.746Z,13.10
2018-07-15T05:09:49.371Z,13.10
2018-07-15T05:12:17.862Z,13.20
2018-07-15T05:14:46.344Z,13.20
2018-07-15T05:17:14.820Z,13.30
2018-07-15T05:19:43.279Z,13.30
2018-07-15T05:22:11.767Z,13.40
2018-07-15T05:24:40.258Z,13.50
2018-07-15T05:27:08.725Z,13.60
2018-07-15T05:29:37.182Z,13.70
2018-07-15T05:32:05.727Z,13.90
2018-07-15T05:34:34.221Z,14.00
2018-07-15T05:37:02.698Z,14.10
2018-07-15T05:39:31.200Z,14.20
2018-07-15T05:41:59.704Z,14.30
2018-07-15T05:44:28.238Z,14.40
2018-07-15T05:46:56.750Z,14.60
2018-07-15T05:49:25.224Z,14.60
2018-07-15T05:51:53.772Z,14.80
2018-07-15T05:54:22.168Z,14.90
2018-07-15T05:56:50.672Z,15.00
2018-07-15T05:59:19.245Z,15.00
2018-07-15T06:01:47.722Z,15.10
2018-07-15T06:04:16.194Z,15.20
2018-07-15T06:06:44.687Z,15.30
2018-07-15T06:11:41.337Z,15.40
2018-07-15T06:14:09.873Z,15.50
2018-07-15T06:16:38.331Z,15.60
2018-07-15T06:19:06.888Z,15.70
2018-07-15T06:21:35.326Z,15.70
2018-07-15T06:24:03.855Z,15.80
2018-07-15T06:26:32.301Z,15.90
2018-07-15T06:29:00.796Z,15.90
2018-07-15T06:31:29.263Z,16.00
2018-07-15T06:33:57.709Z,16.00
2018-07-15T06:36:26.170Z,16.10
2018-07-15T06:38:54.643Z,16.10
2018-07-15T06:41:23.124Z,16.20
2018-07-15T06:43:51.600Z,16.20
2018-07-15T06:46:20.088Z,16.30
2018-07-15T06:48:48.543Z,16.30
2018-07-15T06:51:17.044Z,16.40
2018-07-15T06:53:45.549Z,16.40
2018-07-15T06:56:14.058Z,16.40
2018-07-15T06:58:42.686Z,16.50
2018-07-15T07:01:11.216Z,16.50
2018-07-15T07:03:39.719Z,16.60
2018-07-15T07:06:08.178Z,16.70
2018-07-15T07:08:36.667Z,16.80
2018-07-15T07:11:05.158Z,16.80
2018-07-15T07:13:33.631Z,16.80
2018-07-15T07:16:02.080Z,16.90
2018-07-15T07:18:30.579Z,17.00
2018-07-15T07:20:59.201Z,17.10
2018-07-15T07:23:27.689Z,17.10
2018-07-15T07:25:56.169Z,17.10
2018-07-15T07:28:24.622Z,17.20
2018-07-15T07:30:53.176Z,17.30
2018-07-15T07:33:21.912Z,17.30
2018-07-15T07:35:50.414Z,17.40
2018-07-15T07:38:18.959Z,17.50
2018-07-15T07:43:15.654Z,17.60
2018-07-15T07:45:44.182Z,17.70
2018-07-15T07:48:12.680Z,17.70
2018-07-15T07:50:41.209Z,17.80
2018-07-15T07:53:09.725Z,17.90
2018-07-15T07:55:38.203Z,17.90
2018-07-15T07:58:06.661Z,17.90
2018-07-15T08:00:35.133Z,18.00
2018-07-15T08:05:31.809Z,18.20
2018-07-15T08:08:00.323Z,18.20
2018-07-15T08:10:28.751Z,18.30
2018-07-15T08:15:25.446Z,18.40
2018-07-15T08:17:53.928Z,18.50
2018-07-15T08:20:22.495Z,18.60
2018-07-15T08:22:51.067Z,18.70
2018-07-15T08:25:19.575Z,18.80
2018-07-15T08:30:27.543Z,18.90
2018-07-15T08:32:56.067Z,19.00
2018-07-15T08:35:24.514Z,19.00
2018-07-15T08:37:53.559Z,19.10
2018-07-15T08:40:21.999Z,19.10
2018-07-15T08:42:50.663Z,19.20
2018-07-15T08:45:19.119Z,19.30
2018-07-15T08:50:15.763Z,19.50
2018-07-15T08:52:44.232Z,19.60
2018-07-15T08:55:12.795Z,19.70
2018-07-15T08:57:41.425Z,19.80
2018-07-15T09:00:09.982Z,20.00
2018-07-15T09:02:38.502Z,20.00
2018-07-15T09:05:06.979Z,20.20
2018-07-15T09:07:35.448Z,20.20
2018-07-15T09:10:04.906Z,20.20
2018-07-15T09:12:33.388Z,20.20
2018-07-15T09:17:30.031Z,20.30
2018-07-15T09:19:58.619Z,20.30
2018-07-15T09:22:27.085Z,20.40
2018-07-15T09:24:55.625Z,20.40
2018-07-15T09:27:24.065Z,20.60
2018-07-15T09:29:52.544Z,20.70
2018-07-15T09:32:20.975Z,20.90
2018-07-15T09:34:49.472Z,21.00
2018-07-15T09:37:17.982Z,21.10
2018-07-15T09:39:46.476Z,21.10
2018-07-15T09:42:14.909Z,21.10
2018-07-15T09:47:11.652Z,21.40
2018-07-15T09:49:40.160Z,21.50
2018-07-15T09:52:08.632Z,21.60
2018-07-15T09:54:37.120Z,21.70
2018-07-15T09:57:05.720Z,21.90
2018-07-15T09:59:34.182Z,22.00
2018-07-15T10:02:02.683Z,22.20
2018-07-15T10:04:31.218Z,22.20
2018-07-15T10:06:59.628Z,22.10
2018-07-15T10:09:28.100Z,22.00
2018-07-15T10:11:56.591Z,22.00
2018-07-15T10:14:25.089Z,22.00
2018-07-15T10:16:53.636Z,22.20
2018-07-15T10:19:22.151Z,22.40
2018-07-15T10:21:50.742Z,22.50
2018-07-15T10:24:19.253Z,22.80
2018-07-15T10:29:15.949Z,22.90
2018-07-15T10:31:44.472Z,22.80
2018-07-15T10:34:12.995Z,22.80
2018-07-15T10:36:41.491Z,22.60
2018-07-15T10:41:38.185Z,22.50
2018-07-15T10:44:06.929Z,22.30
2018-07-15T10:46:35.444Z,22.40
2018-07-15T10:49:03.918Z,22.40
2018-07-15T10:56:28.763Z,22.40
2018-07-15T11:01:25.516Z,22.60
2018-07-15T11:06:22.892Z,22.60
2018-07-15T11:08:52.117Z,22.50
2018-07-15T11:11:21.190Z,22.40
2018-07-15T11:13:50.234Z,22.50
2018-07-15T11:16:19.008Z,22.60
2018-07-15T11:21:15.716Z,22.70
2018-07-15T11:23:44.217Z,22.80
2018-07-15T11:26:12.783Z,22.70
2018-07-15T11:28:41.247Z,22.70
2018-07-15T11:31:10.616Z,22.80
2018-07-15T11:33:39.137Z,22.90
2018-07-15T11:36:07.802Z,23.00
2018-07-15T11:41:04.431Z,23.20
2018-07-15T11:43:32.933Z,23.10
2018-07-15T11:46:01.523Z,23.00
2018-07-15T11:48:30.586Z,22.90
2018-07-15T11:50:59.140Z,22.90
2018-07-15T11:53:27.791Z,22.90
2018-07-15T11:55:56.687Z,23.00
2018-07-15T11:58:25.207Z,23.20
2018-07-15T12:00:54.925Z,23.40
2018-07-15T12:03:23.418Z,23.60
2018-07-15T12:05:51.925Z,23.80
2018-07-15T12:08:20.427Z,24.00
2018-07-15T12:10:48.950Z,24.10
2018-07-15T12:13:17.442Z,23.90
2018-07-15T12:18:14.849Z,23.50
2018-07-15T12:20:43.406Z,23.30
2018-07-15T12:23:11.911Z,23.60
2018-07-15T12:25:40.597Z,23.80
2018-07-15T12:28:09.202Z,23.90
2018-07-15T12:30:37.688Z,23.90
2018-07-15T12:33:06.516Z,23.70
2018-07-15T12:35:35.135Z,23.50
2018-07-15T12:38:03.622Z,23.40
2018-07-15T12:40:32.120Z,23.50
2018-07-15T12:45:28.842Z,23.90
2018-07-15T12:47:57.362Z,24.20
2018-07-15T12:50:25.869Z,24.20
2018-07-15T12:52:54.330Z,24.10
2018-07-15T12:55:23.752Z,24.00
2018-07-15T12:57:52.245Z,23.90
2018-07-15T13:00:20.732Z,23.90
2018-07-15T13:02:49.221Z,24.00
2018-07-15T13:05:17.771Z,24.10
2018-07-15T13:07:46.273Z,24.10
2018-07-15T13:10:14.776Z,24.20
2018-07-15T13:12:43.733Z,24.30
2018-07-15T13:15:12.832Z,24.30
2018-07-15T13:17:41.373Z,24.40
2018-07-15T13:20:09.854Z,24.50
2018-07-15T13:22:38.395Z,24.60
2018-07-15T13:25:06.921Z,24.60
2018-07-15T13:27:35.484Z,24.80
2018-07-15T13:30:04.015Z,25.00
2018-07-15T13:32:32.593Z,25.10
2018-07-15T13:35:01.069Z,24.90
2018-07-15T13:37:29.578Z,24.80
2018-07-15T13:39:58.143Z,24.60
2018-07-15T13:42:26.615Z,24.40
2018-07-15T13:44:55.156Z,24.20
2018-07-15T13:47:23.655Z,24.20
2018-07-15T13:49:52.143Z,24.40
2018-07-15T13:52:20.647Z,24.60
2018-07-15T13:54:49.147Z,24.80
2018-07-15T13:59:45.882Z,25.20
2018-07-15T14:02:14.410Z,25.20
2018-07-15T14:04:42.954Z,25.40
2018-07-15T14:07:11.503Z,25.30
2018-07-15T14:09:40.027Z,25.20
2018-07-15T14:12:08.503Z,24.90
2018-07-15T14:14:36.984Z,24.80
2018-07-15T14:17:05.507Z,24.60
2018-07-15T14:19:33.986Z,24.60
2018-07-15T14:22:02.575Z,24.70
2018-07-15T14:24:31.087Z,24.80
2018-07-15T14:26:59.554Z,24.80
2018-07-15T14:31:56.223Z,24.60
2018-07-15T14:34:24.704Z,24.70
2018-07-15T14:36:53.234Z,24.90
2018-07-15T14:39:25.664Z,25.10
2018-07-15T14:41:54.214Z,25.30
2018-07-15T14:44:22.704Z,25.40
2018-07-15T14:46:51.232Z,25.50
2018-07-15T14:49:19.747Z,25.60
2018-07-15T14:51:48.291Z,25.50
2018-07-15T14:54:16.797Z,25.50
2018-07-15T14:56:45.244Z,25.50
2018-07-15T14:59:13.809Z,25.40
2018-07-15T15:01:42.314Z,25.30
2018-07-15T15:04:10.755Z,25.30
2018-07-15T15:06:39.266Z,25.40
2018-07-15T15:09:08.294Z,25.30
2018-07-15T15:11:36.763Z,25.40
2018-07-15T15:14:05.302Z,25.40
2018-07-15T15:16:33.780Z,25.30
2018-07-15T15:19:02.309Z,25.10
2018-07-15T15:21:30.899Z,24.90
2018-07-15T15:23:59.373Z,24.80
2018-07-15T15:26:27.835Z,24.70
2018-07-15T15:28:56.322Z,24.60
2018-07-15T15:33:52.957Z,24.70
2018-07-15T15:36:21.451Z,25.00
2018-07-15T15:38:49.940Z,25.10
2018-07-15T15:43:46.605Z,25.30
2018-07-15T15:48:43.367Z,25.30
2018-07-15T15:51:11.863Z,25.30
2018-07-15T15:53:40.380Z,25.30
2018-07-15T15:56:08.863Z,25.30
2018-07-15T15:58:37.455Z,25.30
2018-07-15T16:01:05.944Z,25.20
2018-07-15T16:03:34.453Z,25.20
2018-07-15T16:06:02.964Z,25.10
2018-07-15T16:08:31.468Z,25.00
2018-07-15T16:10:59.942Z,24.80
2018-07-15T16:13:28.466Z,24.70
2018-07-15T16:15:56.955Z,24.60
2018-07-15T16:18:25.447Z,24.50
2018-07-15T16:20:53.919Z,24.50
2018-07-15T16:23:22.471Z,24.60
2018-07-15T16:28:19.189Z,24.70
2018-07-15T16:30:47.691Z,24.70
2018-07-15T16:33:16.234Z,24.80
2018-07-15T16:35:44.767Z,24.80
2018-07-15T16:38:13.244Z,24.80
2018-07-15T16:40:41.740Z,24.80
2018-07-15T16:43:10.226Z,24.80
2018-07-15T16:45:38.736Z,24.80
2018-07-15T16:48:07.243Z,24.80
2018-07-15T16:53:03.953Z,25.00
2018-07-15T16:55:32.450Z,25.10
2018-07-15T16:58:00.938Z,25.10
2018-07-15T17:00:29.507Z,25.10
2018-07-15T17:02:57.962Z,25.10
2018-07-15T17:05:26.433Z,25.10
2018-07-15T17:07:54.897Z,25.10
2018-07-15T17:10:23.386Z,25.10
2018-07-15T17:12:51.848Z,25.00
2018-07-15T17:15:20.340Z,25.00
2018-07-15T17:17:48.993Z,25.00
2018-07-15T17:20:17.490Z,25.10
2018-07-15T17:22:46.027Z,25.00
2018-07-15T17:25:14.523Z,25.00
2018-07-15T17:27:43.269Z,25.00
2018-07-15T17:30:11.787Z,25.00
2018-07-15T17:32:40.361Z,24.90
2018-07-15T17:35:08.847Z,24.80
2018-07-15T17:37:37.418Z,24.70
2018-07-15T17:40:05.906Z,24.70
2018-07-15T17:42:34.427Z,24.60
2018-07-15T17:45:02.960Z,24.60
2018-07-15T17:47:31.510Z,24.50
2018-07-15T17:52:28.360Z,24.40
2018-07-15T17:54:56.843Z,24.30
2018-07-15T17:57:25.360Z,24.20
2018-07-15T17:59:53.870Z,24.20
2018-07-15T18:02:22.424Z,24.10
2018-07-15T18:07:19.274Z,24.00
2018-07-15T18:09:47.747Z,24.00
2018-07-15T18:12:16.266Z,23.90
2018-07-15T18:14:44.751Z,23.90
2018-07-15T18:17:13.293Z,23.80
2018-07-15T18:19:41.776Z,23.70
2018-07-15T18:22:10.417Z,23.70
2018-07-15T18:24:38.880Z,23.60
2018-07-15T18:27:07.401Z,23.60
2018-07-15T18:29:35.926Z,23.60
2018-07-15T18:32:04.428Z,23.60
2018-07-15T18:34:32.924Z,23.60
2018-07-15T18:37:01.387Z,23.60
2018-07-15T18:39:29.898Z,23.50
2018-07-15T18:41:58.385Z,23.60
2018-07-15T18:44:26.866Z,23.50
2018-07-15T18:46:55.367Z,23.50
2018-07-15T18:49:23.818Z,23.50
2018-07-15T18:51:52.286Z,23.50
2018-07-15T18:54:20.781Z,23.50
2018-07-15T18:56:49.274Z,23.40
2018-07-15T18:59:17.798Z,23.40
2018-07-15T19:01:46.277Z,23.30
2018-07-15T19:04:14.770Z,23.30
2018-07-15T19:09:11.426Z,23.20
2018-07-15T19:14:08.119Z,23.10
2018-07-15T19:16:36.625Z,23.10
2018-07-15T19:19:05.275Z,23.10
2018-07-15T19:21:33.736Z,23.00
2018-07-15T19:24:02.279Z,22.90
2018-07-15T19:26:30.787Z,22.90
2018-07-15T19:28:59.267Z,22.80
2018-07-15T19:31:27.828Z,22.80
2018-07-15T19:33:56.300Z,22.70
2018-07-15T19:36:24.844Z,22.70
2018-07-15T19:38:53.407Z,22.60
2018-07-15T19:43:50.051Z,22.50
2018-07-15T19:46:18.649Z,22.40
2018-07-15T19:48:47.142Z,22.30
2018-07-15T19:51:15.655Z,22.20
2018-07-15T19:53:44.131Z,22.10
2018-07-15T19:56:12.600Z,22.00
2018-07-15T19:58:41.141Z,21.90
2018-07-15T20:03:37.841Z,21.80
2018-07-15T20:06:06.357Z,21.60
2018-07-15T20:08:34.891Z,21.60
2018-07-15T20:11:03.365Z,21.50
2018-07-15T20:16:00.054Z,21.30
2018-07-15T20:18:28.530Z,21.20
2018-07-15T20:20:57.055Z,21.10
2018-07-15T20:23:25.517Z,21.00
2018-07-15T20:25:54.484Z,21.00
2018-07-15T20:28:23.012Z,20.90
2018-07-15T20:30:51.548Z,20.80
2018-07-15T20:33:20.180Z,20.70
2018-07-15T20:35:48.654Z,20.70
2018-07-15T20:38:17.243Z,20.50
2018-07-15T20:40:45.728Z,20.50
2018-07-15T20:43:14.248Z,20.40
2018-07-15T20:45:42.705Z,20.40
2018-07-15T20:48:11.171Z,20.30
2018-07-15T20:50:39.699Z,20.20
2018-07-15T20:53:08.353Z,20.20
2018-07-15T20:55:36.954Z,20.10
2018-07-15T20:58:05.428Z,20.10
2018-07-15T21:00:33.965Z,20.10
2018-07-15T21:03:02.596Z,20.00
2018-07-15T21:05:31.067Z,20.00
2018-07-15T21:07:59.540Z,19.90
2018-07-15T21:10:28.015Z,19.80
2018-07-15T21:12:56.452Z,19.80
2018-07-15T21:15:24.956Z,19.80
2018-07-15T21:17:53.558Z,19.70
2018-07-15T21:20:22.046Z,19.60
2018-07-15T21:22:50.508Z,19.60
2018-07-15T21:25:19.050Z,19.50
2018-07-15T21:27:47.556Z,19.50
2018-07-15T21:30:16.044Z,19.40
2018-07-15T21:35:12.671Z,19.40
2018-07-15T21:37:41.234Z,19.30
2018-07-15T21:40:09.679Z,19.20
2018-07-15T21:42:38.167Z,19.20
2018-07-15T21:45:06.834Z,19.10
2018-07-15T21:47:35.323Z,19.10
2018-07-15T21:50:03.942Z,19.00
2018-07-15T21:52:32.395Z,18.90
2018-07-15T21:57:29.034Z,18.90
2018-07-15T21:59:57.628Z,18.80
2018-07-15T22:02:26.129Z,18.80
2018-07-15T22:04:56.723Z,18.80
2018-07-15T22:07:36.529Z,18.70
2018-07-15T22:10:20.216Z,18.70
2018-07-15T22:12:48.725Z,18.60
2018-07-15T22:15:17.234Z,18.60
2018-07-15T22:20:13.999Z,18.50
2018-07-15T22:22:42.677Z,18.50
2018-07-15T22:30:07.568Z,18.40
2018-07-15T22:32:36.115Z,18.40
2018-07-15T22:37:32.831Z,18.30
2018-07-15T22:40:01.368Z,18.30
2018-07-15T22:42:29.828Z,18.30
2018-07-15T22:44:58.431Z,18.20
2018-07-15T22:47:26.921Z,18.20
2018-07-15T22:52:23.650Z,18.20
2018-07-15T22:54:52.238Z,18.20
2018-07-15T22:57:20.682Z,18.20
2018-07-15T22:59:49.256Z,18.20
2018-07-15T23:02:17.788Z,18.10
2018-07-15T23:05:56.993Z,18.10
2018-07-15T23:08:26.611Z,18.00
2018-07-15T23:10:55.245Z,18.00
2018-07-15T23:13:23.738Z,18.00
2018-07-15T23:15:52.402Z,18.00
2018-07-15T23:18:21.155Z,17.90
2018-07-15T23:20:51.331Z,17.90
2018-07-15T23:23:19.835Z,17.90
2018-07-15T23:25:48.589Z,17.80
2018-07-15T23:28:17.864Z,17.80
2018-07-15T23:30:46.686Z,17.70
2018-07-15T23:33:15.383Z,17.70
2018-07-15T23:35:43.911Z,17.70
2018-07-15T23:38:12.608Z,17.60
2018-07-15T23:40:41.116Z,17.60
2018-07-15T23:43:09.586Z,17.50
2018-07-15T23:45:38.244Z,17.50
2018-07-15T23:48:06.775Z,17.50
2018-07-15T23:50:35.295Z,17.50
2018-07-15T23:53:03.793Z,17.50
2018-07-15T23:55:32.328Z,17.40
2018-07-15T23:58:00.903Z,17.40
